Time;durP1;ratioP1;P1;durP2;ratioP2;P2;SDS_P1;SDS_P2;PMS_P1;PMS_P2;Temp;Humidity;BMP_temperature;BMP_pressure;BME280_temperature;BME280_humidity;BME280_pressure;Samples;Min_cycle;Max_cycle;Signal;HPM_P1;HPM_P2
2021/01/01 00:01:35;;;;;;;42.65;30.27;;;;;;;;;;5094133;28;20258;-59
2021/01/01 00:04:02;;;;;;;39.65;29.08;;;;;;;;;;5093900;28;20204;-59
2021/01/01 00:06:28;;;;;;;35.88;27.15;;;;;;;;;;5093732;28;20212;-60
2021/01/01 00:08:55;;;;;;;37.95;27.67;;;;;;;;;;5094935;28;20595;-61
2021/01/01 00:11:22;;;;;;;34.80;27.10;;;;;;;;;;5095020;28;20560;-60
2021/01/01 00:13:49;;;;;;;37.80;28.95;;;;;;;;;;5096828;28;20553;-59
2021/01/01 00:16:17;;;;;;;38.83;28.45;;;;;;;;;;5095674;28;20777;-59
2021/01/01 00:18:44;;;;;;;35.53;26.40;;;;;;;;;;5097175;28;20193;-59
2021/01/01 00:21:11;;;;;;;39.47;27.02;;;;;;;;;;5096978;28;20246;-60
2021/01/01 00:23:38;;;;;;;37.88;24.92;;;;;;;;;;5097843;28;20220;-59
2021/01/01 00:26:10;;;;;;;33.53;25.08;;;;;;;;;;5099184;28;20252;-60
2021/01/01 00:28:37;;;;;;;35.08;28.35;;;;;;;;;;5104126;28;20204;-60
2021/01/01 00:31:03;;;;;;;30.55;24.55;;;;;;;;;;5118164;28;20214;-62
2021/01/01 00:33:31;;;;;;;35.78;27.08;;;;;;;;;;5117416;28;20224;-60
2021/01/01 00:35:58;;;;;;;36.05;28.13;;;;;;;;;;5107189;28;20212;-60
2021/01/01 00:38:24;;;;;;;39.28;29.17;;;;;;;;;;5099529;28;20196;-59
2021/01/01 00:40:51;;;;;;;42.10;31.50;;;;;;;;;;5097780;28;20200;-60
2021/01/01 00:43:18;;;;;;;43.67;31.95;;;;;;;;;;5097465;28;20254;-57
2021/01/01 00:45:45;;;;;;;50.05;36.33;;;;;;;;;;5097232;28;20571;-60
2021/01/01 00:48:11;;;;;;;50.55;38.45;;;;;;;;;;5097310;28;20216;-60
2021/01/01 00:50:39;;;;;;;54.45;38.38;;;;;;;;;;5097188;28;20390;-59
2021/01/01 00:53:06;;;;;;;57.88;40.90;;;;;;;;;;5097367;28;20653;-60
2021/01/01 00:55:32;;;;;;;55.58;38.88;;;;;;;;;;5097049;28;20205;-59
2021/01/01 00:57:59;;;;;;;56.08;41.00;;;;;;;;;;5097313;28;20246;-60
2021/01/01 01:00:26;;;;;;;55.03;41.10;;;;;;;;;;5097087;28;20664;-59
2021/01/01 01:02:53;;;;;;;58.33;40.90;;;;;;;;;;5097574;28;20220;-60
2021/01/01 01:05:19;;;;;;;58.42;43.08;;;;;;;;;;5097157;28;20207;-60
2021/01/01 01:07:47;;;;;;;60.00;45.50;;;;;;;;;;5097270;28;20208;-60
2021/01/01 01:10:14;;;;;;;59.58;44.35;;;;;;;;;;5097341;28;20253;-60
2021/01/01 01:12:41;;;;;;;62.05;44.40;;;;;;;;;;5097615;28;20307;-59
2021/01/01 01:15:08;;;;;;;62.72;45.33;;;;;;;;;;5098366;28;20198;-59
2021/01/01 01:17:35;;;;;;;63.38;46.10;;;;;;;;;;5097787;28;20196;-59
2021/01/01 01:20:02;;;;;;;62.38;44.50;;;;;;;;;;5097590;28;20196;-59
2021/01/01 01:22:29;;;;;;;60.70;44.20;;;;;;;;;;5096983;28;20708;-59
2021/01/01 01:24:56;;;;;;;52.33;38.90;;;;;;;;;;5097146;28;20201;-59
2021/01/01 01:27:23;;;;;;;55.13;38.42;;;;;;;;;;5097351;28;20200;-59
2021/01/01 01:29:51;;;;;;;46.30;36.35;;;;;;;;;;5098524;28;20228;-59
2021/01/01 01:32:18;;;;;;;45.38;36.22;;;;;;;;;;5097447;28;20729;-59
2021/01/01 01:34:45;;;;;;;48.88;35.35;;;;;;;;;;5097254;28;20200;-58
2021/01/01 01:37:11;;;;;;;48.80;34.65;;;;;;;;;;5098839;28;20213;-60
2021/01/01 01:39:38;;;;;;;46.88;33.78;;;;;;;;;;5097900;28;20212;-59
2021/01/01 01:42:06;;;;;;;49.05;33.47;;;;;;;;;;5097231;28;20224;-60
2021/01/01 01:44:33;;;;;;;42.60;32.22;;;;;;;;;;5098340;28;20205;-59
2021/01/01 01:47:00;;;;;;;40.88;31.17;;;;;;;;;;5098001;28;20204;-59
2021/01/01 01:49:27;;;;;;;39.50;31.83;;;;;;;;;;5098406;28;20227;-59
2021/01/01 01:51:54;;;;;;;39.47;31.13;;;;;;;;;;5097676;28;20365;-59
2021/01/01 01:54:21;;;;;;;43.22;32.33;;;;;;;;;;5096614;28;20253;-59
2021/01/01 01:56:47;;;;;;;43.20;31.30;;;;;;;;;;5096624;28;20589;-59
2021/01/01 01:59:16;;;;;;;44.78;30.13;;;;;;;;;;5095723;28;20583;-60
2021/01/01 02:01:43;;;;;;;41.65;29.80;;;;;;;;;;5096006;28;20231;-59
2021/01/01 02:04:10;;;;;;;38.95;28.50;;;;;;;;;;5095905;28;20663;-60
2021/01/01 02:06:37;;;;;;;36.90;27.98;;;;;;;;;;5095877;28;20234;-60
2021/01/01 02:09:04;;;;;;;37.60;29.73;;;;;;;;;;5095889;28;20255;-59
2021/01/01 02:11:32;;;;;;;41.08;28.88;;;;;;;;;;5095957;28;20200;-60
2021/01/01 02:14:00;;;;;;;36.13;27.05;;;;;;;;;;5095768;28;20721;-60
2021/01/01 02:16:28;;;;;;;39.80;28.30;;;;;;;;;;5095805;28;20196;-60
2021/01/01 02:18:55;;;;;;;37.67;28.75;;;;;;;;;;5095780;28;20219;-60
2021/01/01 02:21:21;;;;;;;40.47;29.23;;;;;;;;;;5095774;28;20691;-59
2021/01/01 02:23:50;;;;;;;40.58;28.98;;;;;;;;;;5106132;28;20227;-59
2021/01/01 02:26:17;;;;;;;38.10;28.20;;;;;;;;;;5102732;28;20204;-60
2021/01/01 02:28:43;;;;;;;39.53;28.00;;;;;;;;;;5095616;28;20630;-60
2021/01/01 02:31:10;;;;;;;40.53;29.90;;;;;;;;;;5095706;28;20215;-59
2021/01/01 02:33:37;;;;;;;34.65;26.60;;;;;;;;;;5095326;28;20215;-59
2021/01/01 02:36:04;;;;;;;38.00;25.65;;;;;;;;;;5095266;28;20217;-60
2021/01/01 02:38:31;;;;;;;34.83;28.05;;;;;;;;;;5096032;28;20200;-59
2021/01/01 02:40:58;;;;;;;40.30;28.88;;;;;;;;;;5097457;28;20201;-60
2021/01/01 02:43:25;;;;;;;37.05;28.25;;;;;;;;;;5096526;28;20637;-59
2021/01/01 02:45:52;;;;;;;37.55;28.42;;;;;;;;;;5095646;28;20579;-60
2021/01/01 02:48:19;;;;;;;42.53;28.00;;;;;;;;;;5095724;28;20593;-59
2021/01/01 02:50:46;;;;;;;40.97;29.00;;;;;;;;;;5096025;28;20676;-59
2021/01/01 02:53:13;;;;;;;40.40;30.20;;;;;;;;;;5094573;28;20227;-60
2021/01/01 02:55:40;;;;;;;43.55;31.33;;;;;;;;;;5094747;28;20575;-60
2021/01/01 02:58:08;;;;;;;43.65;31.02;;;;;;;;;;5094943;28;20246;-59
2021/01/01 03:00:35;;;;;;;42.15;29.70;;;;;;;;;;5097506;28;20208;-59
2021/01/01 03:03:02;;;;;;;44.60;30.25;;;;;;;;;;5096214;28;20223;-59
2021/01/01 03:05:29;;;;;;;46.22;30.70;;;;;;;;;;5095734;28;20212;-59
2021/01/01 03:07:56;;;;;;;48.58;32.50;;;;;;;;;;5095895;28;20208;-59
2021/01/01 03:10:23;;;;;;;44.10;31.25;;;;;;;;;;5095782;28;20209;-59
2021/01/01 03:12:50;;;;;;;41.95;30.85;;;;;;;;;;5095660;28;20220;-58
2021/01/01 03:15:17;;;;;;;43.60;30.20;;;;;;;;;;5096082;28;20598;-59
2021/01/01 03:17:44;;;;;;;43.85;31.95;;;;;;;;;;5095750;28;20564;-59
2021/01/01 03:20:12;;;;;;;43.95;29.45;;;;;;;;;;5096166;28;20203;-60
2021/01/01 03:22:38;;;;;;;39.20;30.48;;;;;;;;;;5095318;28;20223;-59
2021/01/01 03:25:06;;;;;;;42.35;30.88;;;;;;;;;;5096002;28;20207;-58
2021/01/01 03:27:32;;;;;;;45.58;31.58;;;;;;;;;;5095184;28;20204;-59
2021/01/01 03:29:59;;;;;;;45.55;32.00;;;;;;;;;;5095656;28;20200;-60
2021/01/01 03:32:27;;;;;;;45.58;32.78;;;;;;;;;;5095403;28;20220;-59
2021/01/01 03:34:54;;;;;;;47.95;33.92;;;;;;;;;;5102182;28;20208;-58
2021/01/01 03:37:20;;;;;;;49.28;32.28;;;;;;;;;;5099275;28;20208;-58
2021/01/01 03:39:47;;;;;;;46.38;31.25;;;;;;;;;;5095118;28;20204;-59
2021/01/01 03:42:14;;;;;;;45.53;32.83;;;;;;;;;;5113696;28;20227;-64
2021/01/01 03:44:41;;;;;;;44.83;32.60;;;;;;;;;;5115149;28;20201;-59
2021/01/01 03:47:07;;;;;;;41.85;29.20;;;;;;;;;;5111617;28;20211;-60
2021/01/01 03:49:35;;;;;;;37.38;28.25;;;;;;;;;;5095020;28;20220;-59
2021/01/01 03:52:02;;;;;;;37.85;27.88;;;;;;;;;;5094966;28;20224;-59
2021/01/01 03:54:29;;;;;;;39.92;27.40;;;;;;;;;;5095716;28;20200;-59
2021/01/01 03:56:55;;;;;;;39.67;27.08;;;;;;;;;;5094784;28;20698;-59
2021/01/01 03:59:22;;;;;;;37.95;26.48;;;;;;;;;;5094678;28;20668;-58
2021/01/01 04:01:49;;;;;;;37.78;25.50;;;;;;;;;;5094941;28;20220;-60
2021/01/01 04:07:31;;;;;;;36.22;25.58;;;;;;;;;;5133856;27;20935;-58
2021/01/01 04:09:58;;;;;;;37.78;25.35;;;;;;;;;;5133949;27;20195;-59
2021/01/01 04:12:25;;;;;;;36.20;25.40;;;;;;;;;;5135390;27;20242;-58
2021/01/01 04:14:52;;;;;;;35.78;25.52;;;;;;;;;;5137169;27;20206;-59
2021/01/01 04:17:19;;;;;;;34.47;24.40;;;;;;;;;;5132317;27;20241;-59
2021/01/01 04:19:45;;;;;;;34.88;25.08;;;;;;;;;;5133415;27;20613;-58
2021/01/01 04:22:12;;;;;;;32.63;23.55;;;;;;;;;;5132068;27;20219;-59
2021/01/01 04:24:40;;;;;;;37.65;24.05;;;;;;;;;;5131886;27;20206;-58
2021/01/01 04:27:06;;;;;;;35.10;24.02;;;;;;;;;;5132072;27;20268;-60
2021/01/01 04:29:33;;;;;;;33.45;23.40;;;;;;;;;;5131921;27;20275;-60
2021/01/01 04:32:00;;;;;;;32.47;22.48;;;;;;;;;;5131481;27;20714;-59
2021/01/01 04:34:27;;;;;;;33.05;24.63;;;;;;;;;;5131877;27;20689;-59
2021/01/01 04:36:53;;;;;;;30.23;23.00;;;;;;;;;;5131897;27;20778;-60
2021/01/01 04:39:20;;;;;;;32.90;22.77;;;;;;;;;;5131587;27;20215;-59
2021/01/01 04:41:50;;;;;;;30.83;22.35;;;;;;;;;;5131382;27;20325;-59
2021/01/01 04:44:16;;;;;;;30.67;22.00;;;;;;;;;;5131291;28;20199;-59
2021/01/01 04:46:43;;;;;;;33.08;23.92;;;;;;;;;;5131368;27;20215;-59
2021/01/01 04:49:10;;;;;;;32.50;21.88;;;;;;;;;;5132329;27;20260;-60
2021/01/01 04:51:37;;;;;;;27.08;20.55;;;;;;;;;;5131702;27;20227;-59
2021/01/01 04:54:04;;;;;;;28.58;22.05;;;;;;;;;;5131542;27;20322;-59
2021/01/01 04:56:30;;;;;;;29.88;22.75;;;;;;;;;;5131351;27;20207;-58
2021/01/01 04:59:00;;;;;;;31.70;21.50;;;;;;;;;;5131649;27;20206;-59
2021/01/01 05:01:26;;;;;;;34.22;22.23;;;;;;;;;;5131404;27;20643;-59
2021/01/01 05:03:53;;;;;;;28.55;20.38;;;;;;;;;;5131250;27;20206;-58
2021/01/01 05:06:30;;;;;;;29.40;20.17;;;;;;;;;;5130884;27;20227;-59
2021/01/01 05:08:56;;;;;;;30.58;21.33;;;;;;;;;;5132493;27;20585;-59
2021/01/01 05:11:23;;;;;;;27.63;21.35;;;;;;;;;;5133722;28;20203;-58
2021/01/01 05:13:55;;;;;;;29.48;21.08;;;;;;;;;;5135748;27;20202;-58
2021/01/01 05:16:23;;;;;;;27.20;20.55;;;;;;;;;;5135937;27;20229;-59
2021/01/01 05:18:49;;;;;;;26.75;18.85;;;;;;;;;;5120464;27;20248;-59
2021/01/01 05:21:22;;;;;;;28.23;21.17;;;;;;;;;;5118611;28;20203;-59
2021/01/01 05:23:50;;;;;;;27.85;20.50;;;;;;;;;;5120833;28;20635;-59
2021/01/01 05:26:18;;;;;;;25.10;19.38;;;;;;;;;;5119939;28;20216;-59
2021/01/01 05:28:58;;;;;;;26.00;19.48;;;;;;;;;;5118353;28;20222;-58
2021/01/01 05:31:26;;;;;;;29.00;19.27;;;;;;;;;;5117741;28;20202;-59
2021/01/01 05:33:55;;;;;;;25.55;18.10;;;;;;;;;;5117571;28;20200;-59
2021/01/01 05:36:29;;;;;;;24.80;19.10;;;;;;;;;;5118163;28;20528;-59
2021/01/01 05:38:55;;;;;;;26.23;17.98;;;;;;;;;;5117723;28;20276;-59
2021/01/01 05:41:36;;;;;;;23.83;18.33;;;;;;;;;;5118127;28;20200;-58
2021/01/01 05:44:16;;;;;;;25.17;18.67;;;;;;;;;;5118907;28;20188;-59
2021/01/01 05:46:59;;;;;;;22.23;17.23;;;;;;;;;;5118248;28;20214;-59
2021/01/01 05:49:27;;;;;;;23.10;15.32;;;;;;;;;;5119883;28;20187;-59
2021/01/01 05:52:13;;;;;;;22.75;16.90;;;;;;;;;;5118142;28;20230;-59
2021/01/01 05:54:40;;;;;;;26.98;16.75;;;;;;;;;;5117395;28;20254;-58
2021/01/01 05:57:08;;;;;;;20.50;16.05;;;;;;;;;;5117227;28;20206;-59
2021/01/01 05:59:35;;;;;;;19.42;14.70;;;;;;;;;;5120943;28;20256;-58
2021/01/01 06:02:03;;;;;;;23.30;16.25;;;;;;;;;;5121772;28;20315;-59
2021/01/01 06:04:30;;;;;;;22.23;15.75;;;;;;;;;;5120543;28;20200;-59
2021/01/01 06:06:59;;;;;;;21.83;15.88;;;;;;;;;;5117129;28;20227;-59
2021/01/01 06:09:28;;;;;;;20.73;15.30;;;;;;;;;;5117315;28;20204;-60
2021/01/01 06:11:59;;;;;;;21.25;15.45;;;;;;;;;;5116930;28;20222;-59
2021/01/01 06:14:33;;;;;;;19.65;14.90;;;;;;;;;;5116359;28;20270;-59
2021/01/01 06:17:20;;;;;;;16.35;13.73;;;;;;;;;;5116363;28;20184;-58
2021/01/01 06:19:48;;;;;;;18.60;14.15;;;;;;;;;;5116093;28;20278;-58
2021/01/01 06:22:15;;;;;;;20.65;16.15;;;;;;;;;;5115697;28;20223;-59
2021/01/01 06:24:46;;;;;;;20.20;14.27;;;;;;;;;;5116141;28;20286;-58
2021/01/01 06:27:13;;;;;;;21.30;14.15;;;;;;;;;;5116000;28;20218;-58
2021/01/01 06:29:45;;;;;;;18.90;14.60;;;;;;;;;;5115022;28;20204;-58
2021/01/01 06:32:12;;;;;;;19.42;14.13;;;;;;;;;;5115763;28;20311;-59
2021/01/01 06:34:40;;;;;;;21.83;16.25;;;;;;;;;;5116484;28;20578;-59
2021/01/01 06:37:07;;;;;;;21.00;15.88;;;;;;;;;;5116885;28;20200;-58
2021/01/01 06:39:37;;;;;;;20.58;15.23;;;;;;;;;;5116651;27;20560;-58
2021/01/01 06:42:04;;;;;;;20.73;16.05;;;;;;;;;;5116368;28;20224;-59
2021/01/01 06:44:35;;;;;;;23.55;16.10;;;;;;;;;;5117662;28;20691;-59
2021/01/01 06:47:02;;;;;;;22.10;14.50;;;;;;;;;;5116852;28;20216;-59
2021/01/01 06:49:33;;;;;;;20.60;15.20;;;;;;;;;;5116877;28;20222;-59
2021/01/01 06:52:09;;;;;;;20.65;15.10;;;;;;;;;;5116645;28;20223;-59
2021/01/01 06:54:53;;;;;;;22.20;15.57;;;;;;;;;;5116753;28;20275;-59
2021/01/01 06:57:20;;;;;;;19.25;15.60;;;;;;;;;;5116733;28;20176;-59
2021/01/01 06:59:46;;;;;;;18.48;14.63;;;;;;;;;;5115431;28;20662;-58
2021/01/01 07:02:29;;;;;;;20.70;14.95;;;;;;;;;;5115277;28;20320;-60
2021/01/01 07:04:56;;;;;;;20.65;14.82;;;;;;;;;;5115396;28;20195;-59
2021/01/01 07:07:40;;;;;;;24.95;15.77;;;;;;;;;;5115191;28;20223;-58
2021/01/01 07:10:08;;;;;;;20.75;14.80;;;;;;;;;;5115388;28;20199;-59
2021/01/01 07:12:35;;;;;;;19.52;14.32;;;;;;;;;;5114916;28;20245;-59
2021/01/01 07:15:01;;;;;;;18.15;14.20;;;;;;;;;;5115163;28;20685;-58
2021/01/01 07:17:47;;;;;;;17.70;13.98;;;;;;;;;;5116298;28;20626;-58
2021/01/01 07:20:14;;;;;;;20.25;14.43;;;;;;;;;;5116108;28;20703;-58
2021/01/01 07:22:42;;;;;;;22.27;15.70;;;;;;;;;;5124126;28;20220;-59
2021/01/01 07:25:09;;;;;;;21.77;15.20;;;;;;;;;;5123844;28;20229;-59
2021/01/01 07:27:36;;;;;;;20.20;14.45;;;;;;;;;;5122790;28;20219;-59
2021/01/01 07:30:10;;;;;;;19.90;15.65;;;;;;;;;;5122330;28;20229;-59
2021/01/01 07:32:37;;;;;;;20.67;15.48;;;;;;;;;;5121369;28;20234;-59
2021/01/01 07:35:08;;;;;;;20.95;15.38;;;;;;;;;;5122028;28;20598;-58
2021/01/01 07:37:35;;;;;;;18.45;14.15;;;;;;;;;;5118923;28;20349;-59
2021/01/01 07:40:03;;;;;;;19.85;13.77;;;;;;;;;;5117356;28;20671;-59
2021/01/01 07:42:29;;;;;;;19.58;15.60;;;;;;;;;;5118794;28;20220;-57
2021/01/01 07:44:56;;;;;;;21.15;15.05;;;;;;;;;;5118125;28;20233;-58
2021/01/01 07:47:23;;;;;;;24.35;17.13;;;;;;;;;;5121132;28;20220;-58
2021/01/01 07:49:50;;;;;;;23.92;17.05;;;;;;;;;;5126448;28;20207;-59
2021/01/01 07:52:16;;;;;;;22.98;17.00;;;;;;;;;;5129271;28;20230;-58
2021/01/01 07:54:47;;;;;;;21.35;16.33;;;;;;;;;;5131805;28;20211;-58
2021/01/01 07:57:14;;;;;;;22.40;16.23;;;;;;;;;;5126401;28;20191;-58
2021/01/01 07:59:41;;;;;;;23.38;17.05;;;;;;;;;;5127478;28;20208;-58
2021/01/01 08:02:08;;;;;;;21.23;16.95;;;;;;;;;;5127863;28;20234;-58
2021/01/01 08:04:35;;;;;;;23.40;16.38;;;;;;;;;;5124633;28;20211;-57
2021/01/01 08:07:02;;;;;;;23.45;17.58;;;;;;;;;;5123349;28;20219;-59
2021/01/01 08:09:29;;;;;;;25.55;18.10;;;;;;;;;;5121886;28;20199;-59
2021/01/01 08:12:04;;;;;;;24.90;17.48;;;;;;;;;;5117769;28;20220;-59
2021/01/01 08:14:32;;;;;;;23.83;16.42;;;;;;;;;;5116178;28;20183;-58
2021/01/01 08:16:58;;;;;;;27.10;17.95;;;;;;;;;;5116684;28;20195;-58
2021/01/01 08:19:25;;;;;;;24.70;18.70;;;;;;;;;;5116709;28;20226;-59
2021/01/01 08:21:52;;;;;;;27.33;19.13;;;;;;;;;;5117786;28;20276;-59
2021/01/01 08:24:20;;;;;;;24.00;16.65;;;;;;;;;;5116555;28;20210;-59
2021/01/01 08:26:48;;;;;;;24.35;18.10;;;;;;;;;;5117597;28;20223;-58
2021/01/01 08:29:15;;;;;;;23.33;17.40;;;;;;;;;;5117210;28;20299;-58
2021/01/01 08:31:45;;;;;;;25.15;17.58;;;;;;;;;;5117334;28;20256;-59
2021/01/01 08:34:12;;;;;;;25.70;17.65;;;;;;;;;;5116678;28;20211;-58
2021/01/01 08:36:39;;;;;;;26.20;18.02;;;;;;;;;;5118808;28;20200;-58
2021/01/01 08:39:07;;;;;;;21.58;16.90;;;;;;;;;;5118948;28;20241;-59
2021/01/01 08:41:41;;;;;;;23.75;16.95;;;;;;;;;;5119436;28;20199;-58
2021/01/01 08:44:08;;;;;;;27.60;18.02;;;;;;;;;;5118705;28;20192;-59
2021/01/01 08:46:35;;;;;;;25.67;18.90;;;;;;;;;;5121291;28;20231;-58
2021/01/01 08:49:15;;;;;;;23.55;17.63;;;;;;;;;;5121283;28;20203;-59
2021/01/01 08:51:42;;;;;;;28.08;18.27;;;;;;;;;;5119549;28;20251;-59
2021/01/01 08:54:09;;;;;;;26.38;17.88;;;;;;;;;;5122124;28;20214;-58
2021/01/01 08:56:36;;;;;;;24.48;17.77;;;;;;;;;;5120771;28;20199;-60
2021/01/01 08:59:08;;;;;;;24.00;17.77;;;;;;;;;;5120739;28;20199;-59
2021/01/01 09:01:35;;;;;;;23.42;17.70;;;;;;;;;;5120937;28;20242;-59
2021/01/01 09:04:02;;;;;;;26.90;18.85;;;;;;;;;;5120043;28;20199;-59
2021/01/01 09:06:30;;;;;;;25.75;18.88;;;;;;;;;;5120217;28;20219;-59
2021/01/01 09:09:06;;;;;;;25.65;17.95;;;;;;;;;;5120268;28;20207;-59
2021/01/01 09:11:34;;;;;;;28.20;18.65;;;;;;;;;;5118971;28;20600;-59
2021/01/01 09:14:01;;;;;;;24.50;18.35;;;;;;;;;;5118765;28;20204;-58
2021/01/01 09:16:28;;;;;;;25.10;19.23;;;;;;;;;;5118503;28;20229;-59
2021/01/01 09:18:55;;;;;;;25.10;17.55;;;;;;;;;;5117103;28;20203;-59
2021/01/01 09:21:22;;;;;;;27.95;17.83;;;;;;;;;;5117980;28;20199;-60
2021/01/01 09:23:53;;;;;;;23.67;17.92;;;;;;;;;;5117724;28;20204;-58
2021/01/01 09:26:23;;;;;;;23.88;17.05;;;;;;;;;;5117633;28;20219;-58
2021/01/01 09:28:59;;;;;;;22.80;16.52;;;;;;;;;;5118415;28;20212;-59
2021/01/01 09:31:26;;;;;;;21.00;15.88;;;;;;;;;;5118070;27;20187;-60
2021/01/01 09:33:59;;;;;;;27.15;16.17;;;;;;;;;;5117878;28;20201;-58
2021/01/01 09:36:26;;;;;;;25.13;17.23;;;;;;;;;;5117342;28;20655;-60
2021/01/01 09:38:54;;;;;;;24.00;18.23;;;;;;;;;;5122264;28;20204;-60
2021/01/01 09:41:20;;;;;;;23.80;17.55;;;;;;;;;;5128141;28;20251;-59
2021/01/01 09:43:47;;;;;;;28.75;19.90;;;;;;;;;;5129068;28;20230;-63
2021/01/01 09:46:14;;;;;;;24.30;16.77;;;;;;;;;;5129309;28;20245;-60
2021/01/01 09:48:41;;;;;;;28.27;16.23;;;;;;;;;;5119446;28;20581;-59
2021/01/01 09:51:07;;;;;;;29.63;16.50;;;;;;;;;;5117788;28;20199;-58
2021/01/01 09:53:34;;;;;;;24.55;16.80;;;;;;;;;;5117881;28;20223;-59
2021/01/01 09:56:02;;;;;;;25.15;16.75;;;;;;;;;;5117437;28;20200;-59
2021/01/01 09:58:28;;;;;;;25.92;16.40;;;;;;;;;;5116821;28;20602;-60
2021/01/01 10:00:55;;;;;;;26.80;17.67;;;;;;;;;;5116316;28;20660;-59
2021/01/01 10:03:22;;;;;;;24.02;17.00;;;;;;;;;;5116085;28;20220;-59
2021/01/01 10:05:49;;;;;;;23.65;15.95;;;;;;;;;;5119279;28;20211;-59
2021/01/01 10:08:15;;;;;;;23.85;16.30;;;;;;;;;;5118392;28;20206;-59
2021/01/01 10:10:42;;;;;;;25.55;16.50;;;;;;;;;;5116863;28;20610;-60
2021/01/01 10:13:10;;;;;;;24.15;16.92;;;;;;;;;;5116534;28;20224;-58
2021/01/01 10:15:38;;;;;;;25.35;16.08;;;;;;;;;;5116320;28;20579;-58
2021/01/01 10:18:05;;;;;;;22.23;14.52;;;;;;;;;;5116074;28;20199;-59
2021/01/01 10:20:32;;;;;;;22.00;14.18;;;;;;;;;;5116444;27;20667;-59
2021/01/01 10:22:58;;;;;;;22.10;15.40;;;;;;;;;;5116047;28;20216;-60
2021/01/01 10:25:25;;;;;;;22.33;15.50;;;;;;;;;;5116177;28;20199;-58
2021/01/01 10:27:52;;;;;;;21.33;15.07;;;;;;;;;;5115911;28;20223;-59
2021/01/01 10:30:20;;;;;;;20.35;15.18;;;;;;;;;;5115596;27;20204;-60
2021/01/01 10:32:47;;;;;;;18.52;14.40;;;;;;;;;;5115896;28;20232;-59
2021/01/01 10:35:14;;;;;;;21.15;15.18;;;;;;;;;;5115880;27;20278;-59
2021/01/01 10:37:40;;;;;;;18.38;14.68;;;;;;;;;;5115887;28;20203;-60
2021/01/01 10:40:08;;;;;;;20.45;14.70;;;;;;;;;;5115841;28;20200;-60
2021/01/01 10:42:35;;;;;;;18.83;14.05;;;;;;;;;;5115552;28;20707;-60
2021/01/01 10:45:01;;;;;;;17.35;14.30;;;;;;;;;;5115491;28;20195;-59
2021/01/01 10:47:29;;;;;;;18.65;13.80;;;;;;;;;;5115610;28;20219;-60
2021/01/01 10:49:56;;;;;;;18.35;12.25;;;;;;;;;;5115841;28;20249;-59
2021/01/01 10:52:23;;;;;;;17.50;12.52;;;;;;;;;;5115473;28;20265;-58
2021/01/01 10:54:49;;;;;;;19.20;12.52;;;;;;;;;;5116118;28;20207;-60
2021/01/01 10:57:16;;;;;;;16.13;12.70;;;;;;;;;;5115482;28;20200;-59
2021/01/01 10:59:43;;;;;;;17.35;12.60;;;;;;;;;;5115751;28;20573;-60
2021/01/01 11:02:10;;;;;;;14.27;10.77;;;;;;;;;;5115822;28;20224;-60
2021/01/01 11:04:37;;;;;;;13.00;10.52;;;;;;;;;;5115460;28;20199;-60
2021/01/01 11:07:04;;;;;;;14.20;12.10;;;;;;;;;;5115402;28;20227;-60
2021/01/01 11:09:31;;;;;;;17.05;11.77;;;;;;;;;;5114668;28;20686;-59
2021/01/01 11:11:58;;;;;;;15.70;10.85;;;;;;;;;;5114708;28;20730;-60
2021/01/01 11:14:37;;;;;;;12.68;9.90;;;;;;;;;;5115233;28;20200;-59
2021/01/01 12:23:37;;;;;;;10.80;7.38;;;;;;;;;;5098417;28;20251;-58
2021/01/01 12:26:05;;;;;;;9.95;6.72;;;;;;;;;;5115159;28;20188;-59
2021/01/01 12:28:32;;;;;;;11.65;7.63;;;;;;;;;;5117028;28;20195;-59
2021/01/01 12:31:00;;;;;;;9.43;6.65;;;;;;;;;;5117995;28;20206;-60
2021/01/01 12:33:27;;;;;;;9.50;6.50;;;;;;;;;;5118070;28;20215;-60
2021/01/01 12:35:54;;;;;;;9.43;5.93;;;;;;;;;;5118235;28;20200;-60
2021/01/01 12:38:21;;;;;;;9.82;6.22;;;;;;;;;;5118221;28;20199;-59
2021/01/01 12:40:48;;;;;;;7.13;5.85;;;;;;;;;;5118097;28;20203;-59
2021/01/01 12:43:15;;;;;;;8.73;5.95;;;;;;;;;;5118142;28;20630;-60
2021/01/01 12:45:42;;;;;;;8.65;5.60;;;;;;;;;;5118269;28;20203;-60
2021/01/01 12:48:09;;;;;;;14.45;5.57;;;;;;;;;;5117870;28;20223;-58
2021/01/01 12:50:36;;;;;;;7.57;5.72;;;;;;;;;;5117890;28;20245;-60
2021/01/01 12:53:02;;;;;;;8.05;5.90;;;;;;;;;;5118304;28;20219;-59
2021/01/01 12:55:29;;;;;;;7.88;5.47;;;;;;;;;;5118293;28;20647;-59
2021/01/01 12:57:56;;;;;;;7.97;5.47;;;;;;;;;;5117865;28;20200;-60
2021/01/01 13:00:24;;;;;;;6.57;4.72;;;;;;;;;;5117854;28;20200;-59
2021/01/01 13:02:52;;;;;;;7.15;4.50;;;;;;;;;;5117164;28;20715;-59
2021/01/01 13:05:18;;;;;;;8.63;5.80;;;;;;;;;;5117594;28;20196;-59
2021/01/01 13:07:45;;;;;;;7.35;4.72;;;;;;;;;;5117779;28;20227;-59
2021/01/01 13:10:12;;;;;;;7.07;4.55;;;;;;;;;;5117774;28;20571;-60
2021/01/01 13:12:39;;;;;;;5.88;4.55;;;;;;;;;;5117597;28;20230;-59
2021/01/01 13:15:06;;;;;;;4.75;2.53;;;;;;;;;;5119700;28;20539;-59
2021/01/01 13:17:34;;;;;;;4.47;2.40;;;;;;;;;;5119215;28;20207;-59
2021/01/01 13:20:02;;;;;;;4.40;2.00;;;;;;;;;;5119133;28;20667;-59
2021/01/01 13:22:29;;;;;;;3.50;2.10;;;;;;;;;;5119541;28;20231;-59
2021/01/01 13:24:56;;;;;;;3.53;2.20;;;;;;;;;;5119326;28;20568;-59
2021/01/01 13:27:25;;;;;;;4.93;3.13;;;;;;;;;;5121145;28;20220;-60
2021/01/01 13:29:52;;;;;;;8.15;3.33;;;;;;;;;;5118552;28;20613;-60
2021/01/01 13:32:19;;;;;;;5.03;3.60;;;;;;;;;;5117950;28;20219;-59
2021/01/01 13:34:47;;;;;;;4.82;4.00;;;;;;;;;;5118140;28;20195;-60
2021/01/01 13:37:14;;;;;;;5.28;3.67;;;;;;;;;;5117429;28;20200;-60
2021/01/01 13:39:40;;;;;;;8.65;3.65;;;;;;;;;;5118021;28;20570;-61
2021/01/01 13:42:08;;;;;;;5.80;3.80;;;;;;;;;;5119183;28;20277;-59
2021/01/01 13:44:34;;;;;;;4.30;3.53;;;;;;;;;;5120414;28;20199;-59
2021/01/01 13:47:01;;;;;;;6.72;4.47;;;;;;;;;;5119839;28;20269;-59
2021/01/01 13:49:28;;;;;;;4.30;3.55;;;;;;;;;;5117781;28;20276;-58
2021/01/01 13:51:55;;;;;;;6.22;5.53;;;;;;;;;;5118379;28;20250;-59
2021/01/01 13:54:22;;;;;;;6.35;4.13;;;;;;;;;;5118273;28;20225;-60
2021/01/01 13:56:51;;;;;;;8.52;5.20;;;;;;;;;;5117997;28;20207;-60
2021/01/01 13:59:18;;;;;;;6.53;4.85;;;;;;;;;;5118417;28;20200;-60
2021/01/01 14:01:45;;;;;;;7.05;5.60;;;;;;;;;;5117267;28;20220;-60
2021/01/01 14:04:13;;;;;;;7.40;5.53;;;;;;;;;;5116140;28;20207;-60
2021/01/01 14:06:40;;;;;;;7.90;5.10;;;;;;;;;;5117303;28;20247;-60
2021/01/01 14:09:07;;;;;;;8.10;5.90;;;;;;;;;;5117796;28;20206;-60
2021/01/01 14:11:34;;;;;;;9.50;5.40;;;;;;;;;;5118097;28;20204;-58
2021/01/01 14:14:01;;;;;;;9.88;6.18;;;;;;;;;;5119875;28;20203;-60
2021/01/01 14:16:28;;;;;;;7.72;5.28;;;;;;;;;;5117036;28;20195;-60
2021/01/01 14:18:54;;;;;;;7.30;5.25;;;;;;;;;;5116909;28;20253;-60
2021/01/01 14:21:28;;;;;;;6.93;5.43;;;;;;;;;;5117235;28;20579;-60
2021/01/01 14:23:55;;;;;;;9.30;6.10;;;;;;;;;;5117533;28;20207;-60
2021/01/01 14:26:22;;;;;;;11.30;6.50;;;;;;;;;;5117101;28;20211;-61
2021/01/01 14:28:49;;;;;;;10.45;6.50;;;;;;;;;;5117449;28;20196;-61
2021/01/01 14:31:16;;;;;;;7.25;6.10;;;;;;;;;;5118064;27;20195;-60
2021/01/01 14:33:42;;;;;;;9.40;6.60;;;;;;;;;;5117690;28;20272;-59
2021/01/01 14:36:09;;;;;;;9.30;5.97;;;;;;;;;;5117330;28;20679;-59
2021/01/01 14:38:36;;;;;;;14.25;7.85;;;;;;;;;;5116221;27;20210;-60
2021/01/01 14:41:03;;;;;;;12.25;7.60;;;;;;;;;;5116954;28;20200;-59
2021/01/01 14:43:30;;;;;;;11.23;7.05;;;;;;;;;;5116694;28;20216;-60
2021/01/01 14:45:57;;;;;;;11.95;7.57;;;;;;;;;;5116576;27;20233;-60
2021/01/01 14:48:24;;;;;;;10.32;7.00;;;;;;;;;;5116149;28;20219;-59
2021/01/01 14:50:51;;;;;;;9.00;6.93;;;;;;;;;;5115244;28;20253;-60
2021/01/01 14:53:18;;;;;;;10.15;6.25;;;;;;;;;;5116230;28;20277;-59
2021/01/01 14:55:44;;;;;;;10.50;6.93;;;;;;;;;;5115927;28;20705;-60
2021/01/01 14:58:11;;;;;;;9.10;6.40;;;;;;;;;;5115171;28;20200;-59
2021/01/01 15:00:39;;;;;;;17.02;8.02;;;;;;;;;;5115733;28;20237;-60
2021/01/01 15:03:05;;;;;;;9.70;6.90;;;;;;;;;;5115909;28;20273;-61
2021/01/01 15:05:32;;;;;;;8.93;7.18;;;;;;;;;;5117784;28;20207;-60
2021/01/01 15:07:59;;;;;;;12.50;7.90;;;;;;;;;;5122155;28;20219;-59
2021/01/01 15:10:26;;;;;;;10.80;7.25;;;;;;;;;;5116612;28;20207;-59
2021/01/01 15:12:52;;;;;;;13.82;7.60;;;;;;;;;;5116156;28;20231;-59
2021/01/01 15:15:19;;;;;;;12.20;7.45;;;;;;;;;;5116226;28;20195;-60
2021/01/01 15:17:47;;;;;;;12.20;8.35;;;;;;;;;;5115823;28;20199;-60
2021/01/01 15:20:14;;;;;;;10.60;7.30;;;;;;;;;;5115373;28;20203;-59
2021/01/01 15:22:41;;;;;;;12.25;6.70;;;;;;;;;;5115888;28;20692;-60
2021/01/01 15:25:08;;;;;;;12.98;8.70;;;;;;;;;;5115450;28;20199;-60
2021/01/01 15:27:35;;;;;;;9.60;6.95;;;;;;;;;;5114949;28;20594;-59
2021/01/01 15:30:02;;;;;;;12.52;8.20;;;;;;;;;;5114601;28;20200;-60
2021/01/01 15:32:29;;;;;;;11.15;8.55;;;;;;;;;;5114349;28;20220;-60
2021/01/01 15:34:56;;;;;;;14.93;9.00;;;;;;;;;;5115046;28;20204;-59